sensor_id;sensor_type;location;lat;lon;timestamp;P1;durP1;ratioP1;P2;durP2;ratioP2
21000;SDS011;10658;50.920;12.238;2023-12-20T00:04:00;1.77;;;1.33;;
21000;SDS011;10658;50.920;12.238;2023-12-20T00:08:01;1.98;;;1.52;;
21000;SDS011;10658;50.920;12.238;2023-12-20T00:12:03;2.13;;;1.45;;
21000;SDS011;10658;50.920;12.238;2023-12-20T00:16:04;2.00;;;1.60;;
21000;SDS011;10658;50.920;12.238;2023-12-20T00:20:05;1.60;;;1.50;;
21000;SDS011;10658;50.920;12.238;2023-12-20T00:24:06;2.05;;;1.65;;
21000;SDS011;10658;50.920;12.238;2023-12-20T00:28:07;1.83;;;1.25;;
21000;SDS011;10658;50.920;12.238;2023-12-20T00:32:08;1.52;;;1.25;;
21000;SDS011;10658;50.920;12.238;2023-12-20T00:36:09;1.90;;;1.45;;
21000;SDS011;10658;50.920;12.238;2023-12-20T00:40:10;1.15;;;1.05;;
21000;SDS011;10658;50.920;12.238;2023-12-20T00:44:11;0.95;;;0.90;;
21000;SDS011;10658;50.920;12.238;2023-12-20T00:48:12;2.67;;;0.90;;
21000;SDS011;10658;50.920;12.238;2023-12-20T00:52:12;0.93;;;0.73;;
21000;SDS011;10658;50.920;12.238;2023-12-20T00:56:14;0.77;;;0.70;;
21000;SDS011;10658;50.920;12.238;2023-12-20T01:00:15;0.63;;;0.60;;
21000;SDS011;10658;50.920;12.238;2023-12-20T01:04:15;0.88;;;0.70;;
21000;SDS011;10658;50.920;12.238;2023-12-20T01:08:16;0.38;;;0.38;;
21000;SDS011;10658;50.920;12.238;2023-12-20T01:12:17;0.60;;;0.50;;
21000;SDS011;10658;50.920;12.238;2023-12-20T01:16:18;0.70;;;0.60;;
21000;SDS011;10658;50.920;12.238;2023-12-20T01:20:19;0.68;;;0.52;;
21000;SDS011;10658;50.920;12.238;2023-12-20T01:24:20;0.45;;;0.45;;
21000;SDS011;10658;50.920;12.238;2023-12-20T01:28:21;0.35;;;0.35;;
21000;SDS011;10658;50.920;12.238;2023-12-20T01:32:22;0.40;;;0.40;;
21000;SDS011;10658;50.920;12.238;2023-12-20T01:36:23;0.30;;;0.30;;
21000;SDS011;10658;50.920;12.238;2023-12-20T01:40:24;2.60;;;0.43;;
21000;SDS011;10658;50.920;12.238;2023-12-20T01:44:25;0.40;;;0.30;;
21000;SDS011;10658;50.920;12.238;2023-12-20T01:48:26;0.20;;;0.20;;
21000;SDS011;10658;50.920;12.238;2023-12-20T01:52:29;0.30;;;0.20;;
21000;SDS011;10658;50.920;12.238;2023-12-20T01:56:30;1.63;;;0.30;;
21000;SDS011;10658;50.920;12.238;2023-12-20T02:00:32;0.10;;;0.10;;
21000;SDS011;10658;50.920;12.238;2023-12-20T02:04:33;0.20;;;0.20;;
21000;SDS011;10658;50.920;12.238;2023-12-20T02:08:35;0.17;;;0.17;;
21000;SDS011;10658;50.920;12.238;2023-12-20T02:12:36;0.32;;;0.28;;
21000;SDS011;10658;50.920;12.238;2023-12-20T02:16:36;0.10;;;0.10;;
21000;SDS011;10658;50.920;12.238;2023-12-20T02:20:37;0.10;;;0.10;;
21000;SDS011;10658;50.920;12.238;2023-12-20T02:24:38;0.20;;;0.17;;
21000;SDS011;10658;50.920;12.238;2023-12-20T02:28:39;0.17;;;0.10;;
21000;SDS011;10658;50.920;12.238;2023-12-20T02:32:40;0.20;;;0.20;;
21000;SDS011;10658;50.920;12.238;2023-12-20T02:36:41;0.15;;;0.10;;
21000;SDS011;10658;50.920;12.238;2023-12-20T02:40:41;0.20;;;0.20;;
21000;SDS011;10658;50.920;12.238;2023-12-20T02:44:42;0.38;;;0.20;;
21000;SDS011;10658;50.920;12.238;2023-12-20T02:48:43;0.10;;;0.10;;
21000;SDS011;10658;50.920;12.238;2023-12-20T02:52:47;0.45;;;0.17;;
21000;SDS011;10658;50.920;12.238;2023-12-20T02:56:47;0.10;;;0.10;;
21000;SDS011;10658;50.920;12.238;2023-12-20T03:00:48;0.30;;;0.10;;
21000;SDS011;10658;50.920;12.238;2023-12-20T03:04:49;1.52;;;0.10;;
21000;SDS011;10658;50.920;12.238;2023-12-20T03:08:50;0.10;;;0.10;;
21000;SDS011;10658;50.920;12.238;2023-12-20T03:12:51;0.20;;;0.10;;
21000;SDS011;10658;50.920;12.238;2023-12-20T03:16:51;0.08;;;0.08;;
21000;SDS011;10658;50.920;12.238;2023-12-20T03:20:52;0.10;;;0.10;;
21000;SDS011;10658;50.920;12.238;2023-12-20T03:24:54;0.32;;;0.13;;
21000;SDS011;10658;50.920;12.238;2023-12-20T03:28:56;0.03;;;0.03;;
21000;SDS011;10658;50.920;12.238;2023-12-20T03:32:57;0.30;;;0.20;;
21000;SDS011;10658;50.920;12.238;2023-12-20T03:36:58;0.40;;;0.20;;
21000;SDS011;10658;50.920;12.238;2023-12-20T03:40:59;0.10;;;0.10;;
21000;SDS011;10658;50.920;12.238;2023-12-20T03:45:02;0.10;;;0.10;;
21000;SDS011;10658;50.920;12.238;2023-12-20T03:49:02;0.50;;;0.15;;
21000;SDS011;10658;50.920;12.238;2023-12-20T03:53:03;0.35;;;0.35;;
21000;SDS011;10658;50.920;12.238;2023-12-20T03:57:04;0.10;;;0.10;;
21000;SDS011;10658;50.920;12.238;2023-12-20T04:01:09;0.10;;;0.10;;
21000;SDS011;10658;50.920;12.238;2023-12-20T04:05:11;2.70;;;0.30;;
21000;SDS011;10658;50.920;12.238;2023-12-20T04:09:12;0.20;;;0.20;;
21000;SDS011;10658;50.920;12.238;2023-12-20T04:13:12;0.30;;;0.15;;
21000;SDS011;10658;50.920;12.238;2023-12-20T04:17:14;0.30;;;0.30;;
21000;SDS011;10658;50.920;12.238;2023-12-20T04:21:18;0.20;;;0.20;;
21000;SDS011;10658;50.920;12.238;2023-12-20T04:25:19;0.90;;;0.25;;
21000;SDS011;10658;50.920;12.238;2023-12-20T04:29:20;0.20;;;0.20;;
21000;SDS011;10658;50.920;12.238;2023-12-20T04:33:21;0.45;;;0.30;;
21000;SDS011;10658;50.920;12.238;2023-12-20T04:37:21;0.15;;;0.15;;
21000;SDS011;10658;50.920;12.238;2023-12-20T04:41:22;0.40;;;0.20;;
21000;SDS011;10658;50.920;12.238;2023-12-20T04:45:23;0.75;;;0.40;;
21000;SDS011;10658;50.920;12.238;2023-12-20T04:49:25;0.47;;;0.20;;
21000;SDS011;10658;50.920;12.238;2023-12-20T04:53:25;0.47;;;0.17;;
21000;SDS011;10658;50.920;12.238;2023-12-20T04:57:26;0.28;;;0.20;;
21000;SDS011;10658;50.920;12.238;2023-12-20T05:01:27;0.20;;;0.10;;
21000;SDS011;10658;50.920;12.238;2023-12-20T05:05:28;0.47;;;0.20;;
21000;SDS011;10658;50.920;12.238;2023-12-20T05:09:28;1.45;;;0.28;;
21000;SDS011;10658;50.920;12.238;2023-12-20T05:13:29;0.85;;;0.38;;
21000;SDS011;10658;50.920;12.238;2023-12-20T05:17:30;0.20;;;0.20;;
21000;SDS011;10658;50.920;12.238;2023-12-20T05:21:30;0.10;;;0.10;;
21000;SDS011;10658;50.920;12.238;2023-12-20T05:25:32;0.20;;;0.20;;
21000;SDS011;10658;50.920;12.238;2023-12-20T05:29:32;0.25;;;0.20;;
21000;SDS011;10658;50.920;12.238;2023-12-20T05:33:35;0.60;;;0.60;;
21000;SDS011;10658;50.920;12.238;2023-12-20T05:37:36;0.30;;;0.30;;
21000;SDS011;10658;50.920;12.238;2023-12-20T05:41:38;1.10;;;0.60;;
21000;SDS011;10658;50.920;12.238;2023-12-20T05:45:38;0.73;;;0.63;;
21000;SDS011;10658;50.920;12.238;2023-12-20T05:49:39;0.70;;;0.50;;
21000;SDS011;10658;50.920;12.238;2023-12-20T05:53:40;0.68;;;0.43;;
21000;SDS011;10658;50.920;12.238;2023-12-20T05:57:41;0.95;;;0.65;;
21000;SDS011;10658;50.920;12.238;2023-12-20T06:01:43;0.63;;;0.50;;
21000;SDS011;10658;50.920;12.238;2023-12-20T06:05:44;1.38;;;0.80;;
21000;SDS011;10658;50.920;12.238;2023-12-20T06:09:44;0.55;;;0.47;;
21000;SDS011;10658;50.920;12.238;2023-12-20T06:13:45;0.82;;;0.70;;
21000;SDS011;10658;50.920;12.238;2023-12-20T06:17:46;0.85;;;0.75;;
21000;SDS011;10658;50.920;12.238;2023-12-20T06:21:47;0.90;;;0.50;;
21000;SDS011;10658;50.920;12.238;2023-12-20T06:25:48;1.27;;;1.20;;
21000;SDS011;10658;50.920;12.238;2023-12-20T06:29:48;1.17;;;0.60;;
21000;SDS011;10658;50.920;12.238;2023-12-20T06:33:49;1.02;;;0.60;;
21000;SDS011;10658;50.920;12.238;2023-12-20T06:37:57;0.93;;;0.75;;
21000;SDS011;10658;50.920;12.238;2023-12-20T06:41:58;0.75;;;0.60;;
21000;SDS011;10658;50.920;12.238;2023-12-20T06:46:02;0.52;;;0.50;;
21000;SDS011;10658;50.920;12.238;2023-12-20T06:50:03;1.05;;;0.88;;
21000;SDS011;10658;50.920;12.238;2023-12-20T06:54:04;0.75;;;0.70;;
21000;SDS011;10658;50.920;12.238;2023-12-20T06:58:05;1.33;;;0.82;;
21000;SDS011;10658;50.920;12.238;2023-12-20T07:02:07;1.30;;;0.85;;
21000;SDS011;10658;50.920;12.238;2023-12-20T07:06:09;1.00;;;0.90;;
21000;SDS011;10658;50.920;12.238;2023-12-20T07:10:09;3.38;;;0.95;;
21000;SDS011;10658;50.920;12.238;2023-12-20T07:14:10;1.20;;;0.80;;
21000;SDS011;10658;50.920;12.238;2023-12-20T07:18:11;0.73;;;0.65;;
21000;SDS011;10658;50.920;12.238;2023-12-20T07:22:12;2.38;;;0.98;;
21000;SDS011;10658;50.920;12.238;2023-12-20T07:26:12;1.80;;;1.30;;
21000;SDS011;10658;50.920;12.238;2023-12-20T07:30:13;1.10;;;1.05;;
21000;SDS011;10658;50.920;12.238;2023-12-20T07:34:14;1.63;;;1.52;;
21000;SDS011;10658;50.920;12.238;2023-12-20T07:38:15;2.05;;;1.30;;
21000;SDS011;10658;50.920;12.238;2023-12-20T07:42:16;1.65;;;1.40;;
21000;SDS011;10658;50.920;12.238;2023-12-20T07:46:17;1.30;;;1.20;;
21000;SDS011;10658;50.920;12.238;2023-12-20T07:50:22;1.73;;;1.20;;
21000;SDS011;10658;50.920;12.238;2023-12-20T07:54:24;2.72;;;1.50;;
21000;SDS011;10658;50.920;12.238;2023-12-20T07:58:26;2.17;;;1.10;;
21000;SDS011;10658;50.920;12.238;2023-12-20T08:02:27;1.23;;;1.10;;
21000;SDS011;10658;50.920;12.238;2023-12-20T08:06:28;2.25;;;1.38;;
21000;SDS011;10658;50.920;12.238;2023-12-20T08:10:29;1.80;;;1.52;;
21000;SDS011;10658;50.920;12.238;2023-12-20T08:14:30;4.32;;;2.08;;
21000;SDS011;10658;50.920;12.238;2023-12-20T08:18:31;2.50;;;1.35;;
21000;SDS011;10658;50.920;12.238;2023-12-20T08:22:32;2.80;;;1.73;;
21000;SDS011;10658;50.920;12.238;2023-12-20T08:26:33;2.08;;;1.45;;
21000;SDS011;10658;50.920;12.238;2023-12-20T08:30:34;2.35;;;1.50;;
21000;SDS011;10658;50.920;12.238;2023-12-20T08:34:34;3.55;;;2.05;;
21000;SDS011;10658;50.920;12.238;2023-12-20T08:38:35;3.92;;;1.58;;
21000;SDS011;10658;50.920;12.238;2023-12-20T08:42:36;4.25;;;1.88;;
21000;SDS011;10658;50.920;12.238;2023-12-20T08:46:37;2.78;;;1.70;;
21000;SDS011;10658;50.920;12.238;2023-12-20T08:50:37;2.42;;;1.42;;
21000;SDS011;10658;50.920;12.238;2023-12-20T08:54:39;1.73;;;1.30;;
21000;SDS011;10658;50.920;12.238;2023-12-20T08:58:39;1.48;;;1.30;;
21000;SDS011;10658;50.920;12.238;2023-12-20T09:02:41;3.95;;;1.60;;
21000;SDS011;10658;50.920;12.238;2023-12-20T09:06:41;1.25;;;1.00;;
21000;SDS011;10658;50.920;12.238;2023-12-20T09:10:42;4.43;;;1.92;;
21000;SDS011;10658;50.920;12.238;2023-12-20T09:14:44;3.20;;;1.70;;
21000;SDS011;10658;50.920;12.238;2023-12-20T09:18:46;2.70;;;1.60;;
21000;SDS011;10658;50.920;12.238;2023-12-20T09:22:46;4.43;;;1.70;;
21000;SDS011;10658;50.920;12.238;2023-12-20T09:26:47;2.47;;;1.58;;
21000;SDS011;10658;50.920;12.238;2023-12-20T09:30:48;2.15;;;1.60;;
21000;SDS011;10658;50.920;12.238;2023-12-20T09:34:49;4.15;;;1.60;;
21000;SDS011;10658;50.920;12.238;2023-12-20T09:38:49;3.65;;;1.65;;
21000;SDS011;10658;50.920;12.238;2023-12-20T09:42:58;4.30;;;1.60;;
21000;SDS011;10658;50.920;12.238;2023-12-20T09:47:05;3.33;;;1.65;;
21000;SDS011;10658;50.920;12.238;2023-12-20T09:51:07;1.75;;;1.42;;
21000;SDS011;10658;50.920;12.238;2023-12-20T09:55:07;3.15;;;1.50;;
21000;SDS011;10658;50.920;12.238;2023-12-20T09:59:09;3.58;;;1.58;;
21000;SDS011;10658;50.920;12.238;2023-12-20T10:07:18;5.15;;;1.50;;
21000;SDS011;10658;50.920;12.238;2023-12-20T10:11:19;2.92;;;2.13;;
21000;SDS011;10658;50.920;12.238;2023-12-20T10:15:20;3.90;;;2.22;;
21000;SDS011;10658;50.920;12.238;2023-12-20T10:19:21;3.83;;;1.52;;
21000;SDS011;10658;50.920;12.238;2023-12-20T10:23:22;2.78;;;1.25;;
21000;SDS011;10658;50.920;12.238;2023-12-20T10:27:23;2.58;;;1.45;;
21000;SDS011;10658;50.920;12.238;2023-12-20T10:31:34;3.47;;;1.58;;
21000;SDS011;10658;50.920;12.238;2023-12-20T10:35:35;1.02;;;0.95;;
21000;SDS011;10658;50.920;12.238;2023-12-20T10:39:37;2.72;;;1.38;;
21000;SDS011;10658;50.920;12.238;2023-12-20T10:43:40;1.30;;;1.00;;
21000;SDS011;10658;50.920;12.238;2023-12-20T10:47:43;2.55;;;1.35;;
21000;SDS011;10658;50.920;12.238;2023-12-20T10:51:47;3.40;;;1.77;;
21000;SDS011;10658;50.920;12.238;2023-12-20T10:55:56;3.38;;;1.40;;
21000;SDS011;10658;50.920;12.238;2023-12-20T11:00:03;7.95;;;1.83;;
21000;SDS011;10658;50.920;12.238;2023-12-20T11:04:05;1.25;;;1.08;;
21000;SDS011;10658;50.920;12.238;2023-12-20T11:12:43;2.03;;;1.20;;
21000;SDS011;10658;50.920;12.238;2023-12-20T11:16:46;8.38;;;1.88;;
21000;SDS011;10658;50.920;12.238;2023-12-20T11:20:47;2.83;;;1.48;;
21000;SDS011;10658;50.920;12.238;2023-12-20T11:24:50;2.38;;;1.45;;
21000;SDS011;10658;50.920;12.238;2023-12-20T11:28:51;3.78;;;1.20;;
21000;SDS011;10658;50.920;12.238;2023-12-20T11:32:52;3.72;;;1.30;;
21000;SDS011;10658;50.920;12.238;2023-12-20T11:36:59;3.80;;;1.08;;
21000;SDS011;10658;50.920;12.238;2023-12-20T11:41:04;2.63;;;0.90;;
21000;SDS011;10658;50.920;12.238;2023-12-20T11:45:09;1.98;;;1.00;;
21000;SDS011;10658;50.920;12.238;2023-12-20T11:49:11;2.25;;;1.17;;
21000;SDS011;10658;50.920;12.238;2023-12-20T11:53:12;2.70;;;1.65;;
21000;SDS011;10658;50.920;12.238;2023-12-20T11:57:12;1.10;;;1.00;;
21000;SDS011;10658;50.920;12.238;2023-12-20T12:01:13;4.10;;;0.98;;
21000;SDS011;10658;50.920;12.238;2023-12-20T12:05:15;2.83;;;1.00;;
21000;SDS011;10658;50.920;12.238;2023-12-20T12:09:16;7.30;;;1.45;;
21000;SDS011;10658;50.920;12.238;2023-12-20T12:13:17;2.20;;;0.75;;
21000;SDS011;10658;50.920;12.238;2023-12-20T12:17:18;1.25;;;0.73;;
21000;SDS011;10658;50.920;12.238;2023-12-20T12:21:19;2.72;;;0.95;;
21000;SDS011;10658;50.920;12.238;2023-12-20T12:25:20;0.68;;;0.68;;
21000;SDS011;10658;50.920;12.238;2023-12-20T12:29:23;2.22;;;1.05;;
21000;SDS011;10658;50.920;12.238;2023-12-20T12:33:25;2.05;;;1.17;;
21000;SDS011;10658;50.920;12.238;2023-12-20T12:37:26;1.15;;;1.00;;
21000;SDS011;10658;50.920;12.238;2023-12-20T12:41:28;3.00;;;0.70;;
21000;SDS011;10658;50.920;12.238;2023-12-20T12:45:29;3.30;;;1.00;;
21000;SDS011;10658;50.920;12.238;2023-12-20T12:49:31;4.15;;;1.40;;
21000;SDS011;10658;50.920;12.238;2023-12-20T12:53:32;2.28;;;1.10;;
21000;SDS011;10658;50.920;12.238;2023-12-20T12:57:33;2.65;;;1.20;;
21000;SDS011;10658;50.920;12.238;2023-12-20T13:01:33;2.15;;;1.20;;
21000;SDS011;10658;50.920;12.238;2023-12-20T13:05:34;0.90;;;0.70;;
21000;SDS011;10658;50.920;12.238;2023-12-20T13:09:35;5.50;;;1.17;;
21000;SDS011;10658;50.920;12.238;2023-12-20T13:13:36;3.30;;;1.00;;
21000;SDS011;10658;50.920;12.238;2023-12-20T13:17:37;3.47;;;1.02;;
21000;SDS011;10658;50.920;12.238;2023-12-20T13:21:38;1.67;;;0.98;;
21000;SDS011;10658;50.920;12.238;2023-12-20T13:25:40;7.13;;;1.27;;
21000;SDS011;10658;50.920;12.238;2023-12-20T13:29:45;1.92;;;1.33;;
21000;SDS011;10658;50.920;12.238;2023-12-20T13:33:46;2.35;;;0.82;;
21000;SDS011;10658;50.920;12.238;2023-12-20T13:37:47;0.85;;;0.57;;
21000;SDS011;10658;50.920;12.238;2023-12-20T13:51:45;1.13;;;1.08;;
21000;SDS011;10658;50.920;12.238;2023-12-20T13:55:47;1.63;;;1.10;;
21000;SDS011;10658;50.920;12.238;2023-12-20T13:59:48;1.95;;;1.55;;
21000;SDS011;10658;50.920;12.238;2023-12-20T14:03:49;2.78;;;0.95;;
21000;SDS011;10658;50.920;12.238;2023-12-20T14:07:50;3.13;;;1.35;;
21000;SDS011;10658;50.920;12.238;2023-12-20T14:11:51;0.88;;;0.85;;
21000;SDS011;10658;50.920;12.238;2023-12-20T14:15:51;4.60;;;1.13;;
21000;SDS011;10658;50.920;12.238;2023-12-20T14:19:54;2.13;;;1.10;;
21000;SDS011;10658;50.920;12.238;2023-12-20T14:23:54;4.25;;;1.30;;
21000;SDS011;10658;50.920;12.238;2023-12-20T14:27:56;1.25;;;1.15;;
21000;SDS011;10658;50.920;12.238;2023-12-20T14:31:57;1.23;;;1.10;;
21000;SDS011;10658;50.920;12.238;2023-12-20T14:35:58;4.07;;;2.65;;
21000;SDS011;10658;50.920;12.238;2023-12-20T14:39:58;1.25;;;1.15;;
21000;SDS011;10658;50.920;12.238;2023-12-20T14:43:59;1.65;;;1.30;;
21000;SDS011;10658;50.920;12.238;2023-12-20T14:48:00;2.40;;;1.27;;
21000;SDS011;10658;50.920;12.238;2023-12-20T14:52:00;2.25;;;1.40;;
21000;SDS011;10658;50.920;12.238;2023-12-20T14:56:02;2.72;;;1.25;;
21000;SDS011;10658;50.920;12.238;2023-12-20T15:00:03;1.48;;;0.85;;
21000;SDS011;10658;50.920;12.238;2023-12-20T15:04:05;1.58;;;1.10;;
21000;SDS011;10658;50.920;12.238;2023-12-20T15:08:06;3.17;;;1.90;;
21000;SDS011;10658;50.920;12.238;2023-12-20T15:12:07;2.05;;;1.27;;
21000;SDS011;10658;50.920;12.238;2023-12-20T15:16:09;4.32;;;1.88;;
21000;SDS011;10658;50.920;12.238;2023-12-20T15:20:10;3.35;;;1.90;;
21000;SDS011;10658;50.920;12.238;2023-12-20T15:24:11;2.75;;;1.40;;
21000;SDS011;10658;50.920;12.238;2023-12-20T15:28:16;1.15;;;0.90;;
21000;SDS011;10658;50.920;12.238;2023-12-20T15:32:17;2.47;;;1.00;;
21000;SDS011;10658;50.920;12.238;2023-12-20T15:36:19;3.45;;;1.73;;
21000;SDS011;10658;50.920;12.238;2023-12-20T15:40:19;1.35;;;0.93;;
21000;SDS011;10658;50.920;12.238;2023-12-20T15:44:22;1.10;;;1.00;;
21000;SDS011;10658;50.920;12.238;2023-12-20T15:48:24;5.75;;;1.33;;
21000;SDS011;10658;50.920;12.238;2023-12-20T15:52:29;1.30;;;1.13;;
21000;SDS011;10658;50.920;12.238;2023-12-20T15:56:29;1.58;;;1.13;;
21000;SDS011;10658;50.920;12.238;2023-12-20T16:00:30;2.25;;;0.95;;
21000;SDS011;10658;50.920;12.238;2023-12-20T16:04:32;2.35;;;2.03;;
21000;SDS011;10658;50.920;12.238;2023-12-20T16:08:32;2.75;;;1.42;;
21000;SDS011;10658;50.920;12.238;2023-12-20T16:12:33;1.20;;;1.05;;
21000;SDS011;10658;50.920;12.238;2023-12-20T16:16:34;1.92;;;1.30;;
21000;SDS011;10658;50.920;12.238;2023-12-20T16:20:35;3.35;;;1.30;;
21000;SDS011;10658;50.920;12.238;2023-12-20T16:24:37;3.25;;;2.00;;
21000;SDS011;10658;50.920;12.238;2023-12-20T16:28:38;6.18;;;1.30;;
21000;SDS011;10658;50.920;12.238;2023-12-20T16:32:39;3.33;;;1.20;;
21000;SDS011;10658;50.920;12.238;2023-12-20T16:37:12;1.67;;;1.20;;
21000;SDS011;10658;50.920;12.238;2023-12-20T16:41:41;3.33;;;1.33;;
21000;SDS011;10658;50.920;12.238;2023-12-20T16:46:29;1.40;;;1.05;;
21000;SDS011;10658;50.920;12.238;2023-12-20T16:50:52;3.35;;;1.45;;
21000;SDS011;10658;50.920;12.238;2023-12-20T16:55:09;1.48;;;1.08;;
21000;SDS011;10658;50.920;12.238;2023-12-20T16:59:29;3.28;;;1.15;;
21000;SDS011;10658;50.920;12.238;2023-12-20T17:03:43;3.45;;;1.52;;
21000;SDS011;10658;50.920;12.238;2023-12-20T17:07:44;3.10;;;1.60;;
21000;SDS011;10658;50.920;12.238;2023-12-20T17:12:05;1.00;;;0.80;;
21000;SDS011;10658;50.920;12.238;2023-12-20T17:21:27;1.55;;;1.15;;
21000;SDS011;10658;50.920;12.238;2023-12-20T17:25:40;3.83;;;1.40;;
21000;SDS011;10658;50.920;12.238;2023-12-20T17:34:43;2.10;;;1.58;;
21000;SDS011;10658;50.920;12.238;2023-12-20T17:39:48;4.43;;;1.30;;
21000;SDS011;10658;50.920;12.238;2023-12-20T17:44:04;2.65;;;1.35;;
21000;SDS011;10658;50.920;12.238;2023-12-20T17:58:36;1.40;;;0.88;;
21000;SDS011;10658;50.920;12.238;2023-12-20T18:03:37;4.03;;;1.42;;
21000;SDS011;10658;50.920;12.238;2023-12-20T18:13:42;5.85;;;2.05;;
21000;SDS011;10658;50.920;12.238;2023-12-20T18:18:36;5.47;;;2.33;;
21000;SDS011;10658;50.920;12.238;2023-12-20T18:23:21;3.75;;;2.03;;
21000;SDS011;10658;50.920;12.238;2023-12-20T18:27:22;3.78;;;1.35;;
21000;SDS011;10658;50.920;12.238;2023-12-20T18:31:24;4.22;;;2.55;;
21000;SDS011;10658;50.920;12.238;2023-12-20T18:35:26;3.20;;;1.90;;
21000;SDS011;10658;50.920;12.238;2023-12-20T18:39:27;6.18;;;1.85;;
21000;SDS011;10658;50.920;12.238;2023-12-20T18:43:28;3.88;;;1.63;;
21000;SDS011;10658;50.920;12.238;2023-12-20T18:47:28;3.65;;;1.52;;
21000;SDS011;10658;50.920;12.238;2023-12-20T18:51:29;2.28;;;1.35;;
21000;SDS011;10658;50.920;12.238;2023-12-20T18:55:30;2.35;;;1.80;;
21000;SDS011;10658;50.920;12.238;2023-12-20T18:59:31;4.70;;;2.55;;
21000;SDS011;10658;50.920;12.238;2023-12-20T19:03:31;3.53;;;1.83;;
21000;SDS011;10658;50.920;12.238;2023-12-20T19:07:32;2.30;;;1.80;;
21000;SDS011;10658;50.920;12.238;2023-12-20T19:11:33;3.20;;;2.28;;
21000;SDS011;10658;50.920;12.238;2023-12-20T19:15:35;1.65;;;1.20;;
21000;SDS011;10658;50.920;12.238;2023-12-20T19:19:36;2.15;;;1.50;;
21000;SDS011;10658;50.920;12.238;2023-12-20T19:23:37;2.63;;;1.02;;
21000;SDS011;10658;50.920;12.238;2023-12-20T19:27:43;1.38;;;1.20;;
21000;SDS011;10658;50.920;12.238;2023-12-20T19:31:44;1.38;;;1.20;;
21000;SDS011;10658;50.920;12.238;2023-12-20T19:35:48;1.15;;;0.80;;
21000;SDS011;10658;50.920;12.238;2023-12-20T19:39:53;3.60;;;1.13;;
21000;SDS011;10658;50.920;12.238;2023-12-20T19:44:03;1.00;;;0.80;;
21000;SDS011;10658;50.920;12.238;2023-12-20T19:48:04;1.38;;;0.95;;
21000;SDS011;10658;50.920;12.238;2023-12-20T19:52:07;1.10;;;0.85;;
21000;SDS011;10658;50.920;12.238;2023-12-20T19:56:09;1.05;;;0.95;;
21000;SDS011;10658;50.920;12.238;2023-12-20T20:00:11;0.98;;;0.90;;
21000;SDS011;10658;50.920;12.238;2023-12-20T20:04:13;1.35;;;1.00;;
21000;SDS011;10658;50.920;12.238;2023-12-20T20:08:14;1.90;;;0.98;;
21000;SDS011;10658;50.920;12.238;2023-12-20T20:12:14;1.20;;;1.08;;
21000;SDS011;10658;50.920;12.238;2023-12-20T20:16:15;5.57;;;1.45;;
21000;SDS011;10658;50.920;12.238;2023-12-20T20:20:16;1.85;;;0.85;;
21000;SDS011;10658;50.920;12.238;2023-12-20T20:24:17;1.88;;;0.95;;
21000;SDS011;10658;50.920;12.238;2023-12-20T20:28:17;1.40;;;1.05;;
21000;SDS011;10658;50.920;12.238;2023-12-20T20:32:18;1.35;;;1.00;;
21000;SDS011;10658;50.920;12.238;2023-12-20T20:36:19;3.97;;;1.00;;
21000;SDS011;10658;50.920;12.238;2023-12-20T20:40:20;1.00;;;1.00;;
21000;SDS011;10658;50.920;12.238;2023-12-20T20:44:23;2.47;;;0.90;;
21000;SDS011;10658;50.920;12.238;2023-12-20T20:48:30;0.52;;;0.40;;
21000;SDS011;10658;50.920;12.238;2023-12-20T20:52:31;1.35;;;0.88;;
21000;SDS011;10658;50.920;12.238;2023-12-20T20:56:31;1.27;;;0.80;;
21000;SDS011;10658;50.920;12.238;2023-12-20T21:00:32;1.73;;;1.05;;
21000;SDS011;10658;50.920;12.238;2023-12-20T21:04:33;1.02;;;0.98;;
21000;SDS011;10658;50.920;12.238;2023-12-20T21:08:34;1.05;;;0.88;;
21000;SDS011;10658;50.920;12.238;2023-12-20T21:12:34;1.05;;;0.80;;
21000;SDS011;10658;50.920;12.238;2023-12-20T21:16:35;0.82;;;0.73;;
21000;SDS011;10658;50.920;12.238;2023-12-20T21:20:36;1.25;;;0.68;;
21000;SDS011;10658;50.920;12.238;2023-12-20T21:24:37;0.80;;;0.43;;
21000;SDS011;10658;50.920;12.238;2023-12-20T21:28:38;0.73;;;0.50;;
21000;SDS011;10658;50.920;12.238;2023-12-20T21:32:39;2.25;;;0.80;;
21000;SDS011;10658;50.920;12.238;2023-12-20T21:36:42;1.10;;;0.50;;
21000;SDS011;10658;50.920;12.238;2023-12-20T21:40:42;3.63;;;1.85;;
21000;SDS011;10658;50.920;12.238;2023-12-20T21:44:43;0.50;;;0.45;;
21000;SDS011;10658;50.920;12.238;2023-12-20T21:48:44;1.35;;;0.30;;
21000;SDS011;10658;50.920;12.238;2023-12-20T21:52:45;1.13;;;0.50;;
21000;SDS011;10658;50.920;12.238;2023-12-20T21:56:45;1.42;;;0.80;;
21000;SDS011;10658;50.920;12.238;2023-12-20T22:00:48;0.60;;;0.57;;
21000;SDS011;10658;50.920;12.238;2023-12-20T22:04:49;1.42;;;0.65;;
21000;SDS011;10658;50.920;12.238;2023-12-20T22:08:50;1.30;;;0.70;;
21000;SDS011;10658;50.920;12.238;2023-12-20T22:12:53;1.15;;;0.75;;
21000;SDS011;10658;50.920;12.238;2023-12-20T22:16:56;1.63;;;0.80;;
21000;SDS011;10658;50.920;12.238;2023-12-20T22:21:01;3.63;;;0.80;;
21000;SDS011;10658;50.920;12.238;2023-12-20T22:25:04;5.38;;;1.10;;
21000;SDS011;10658;50.920;12.238;2023-12-20T22:29:06;3.45;;;1.20;;
21000;SDS011;10658;50.920;12.238;2023-12-20T22:33:06;1.75;;;0.85;;
21000;SDS011;10658;50.920;12.238;2023-12-20T22:37:07;1.80;;;0.90;;
21000;SDS011;10658;50.920;12.238;2023-12-20T22:41:08;2.92;;;1.20;;
21000;SDS011;10658;50.920;12.238;2023-12-20T22:45:09;1.75;;;0.88;;
21000;SDS011;10658;50.920;12.238;2023-12-20T22:49:10;1.85;;;0.98;;
21000;SDS011;10658;50.920;12.238;2023-12-20T22:53:11;1.52;;;0.68;;
21000;SDS011;10658;50.920;12.238;2023-12-20T22:57:12;0.80;;;0.77;;
21000;SDS011;10658;50.920;12.238;2023-12-20T23:01:12;3.00;;;0.70;;
21000;SDS011;10658;50.920;12.238;2023-12-20T23:05:13;1.45;;;0.75;;
21000;SDS011;10658;50.920;12.238;2023-12-20T23:09:14;3.50;;;0.93;;
21000;SDS011;10658;50.920;12.238;2023-12-20T23:13:15;0.65;;;0.50;;
21000;SDS011;10658;50.920;12.238;2023-12-20T23:17:16;1.48;;;0.68;;
21000;SDS011;10658;50.920;12.238;2023-12-20T23:21:17;0.90;;;0.60;;
21000;SDS011;10658;50.920;12.238;2023-12-20T23:25:18;0.57;;;0.35;;
21000;SDS011;10658;50.920;12.238;2023-12-20T23:29:19;0.60;;;0.30;;
21000;SDS011;10658;50.920;12.238;2023-12-20T23:33:20;0.20;;;0.17;;
21000;SDS011;10658;50.920;12.238;2023-12-20T23:37:21;0.52;;;0.40;;
21000;SDS011;10658;50.920;12.238;2023-12-20T23:41:22;0.40;;;0.40;;
21000;SDS011;10658;50.920;12.238;2023-12-20T23:45:24;1.33;;;0.60;;
21000;SDS011;10658;50.920;12.238;2023-12-20T23:49:25;0.30;;;0.30;;
21000;SDS011;10658;50.920;12.238;2023-12-20T23:53:26;1.23;;;0.32;;
21000;SDS011;10658;50.920;12.238;2023-12-20T23:57:27;0.30;;;0.20;;
